sensor_id;sensor_type;location;lat;lon;timestamp;P1;durP1;ratioP1;P2;durP2;ratioP2
2053;SDS011;1032;52.542;13.440;2022-12-07T00:01:49;19.70;;;11.97;;
2053;SDS011;1032;52.542;13.440;2022-12-07T00:04:17;15.45;;;10.57;;
2053;SDS011;1032;52.542;13.440;2022-12-07T00:06:44;17.30;;;10.80;;
2053;SDS011;1032;52.542;13.440;2022-12-07T00:09:18;13.32;;;9.63;;
2053;SDS011;1032;52.542;13.440;2022-12-07T00:11:45;15.45;;;9.70;;
2053;SDS011;1032;52.542;13.440;2022-12-07T00:14:16;11.98;;;9.60;;
2053;SDS011;1032;52.542;13.440;2022-12-07T00:16:44;13.48;;;9.73;;
2053;SDS011;1032;52.542;13.440;2022-12-07T00:19:11;15.60;;;10.07;;
2053;SDS011;1032;52.542;13.440;2022-12-07T00:21:39;13.95;;;9.90;;
2053;SDS011;1032;52.542;13.440;2022-12-07T00:24:06;15.43;;;11.20;;
2053;SDS011;1032;52.542;13.440;2022-12-07T00:26:33;12.13;;;10.10;;
2053;SDS011;1032;52.542;13.440;2022-12-07T00:29:03;14.10;;;10.50;;
2053;SDS011;1032;52.542;13.440;2022-12-07T00:31:32;12.10;;;10.03;;
2053;SDS011;1032;52.542;13.440;2022-12-07T00:34:03;13.33;;;9.70;;
2053;SDS011;1032;52.542;13.440;2022-12-07T00:36:30;14.35;;;10.30;;
2053;SDS011;1032;52.542;13.440;2022-12-07T00:38:57;13.80;;;10.27;;
2053;SDS011;1032;52.542;13.440;2022-12-07T00:41:25;12.30;;;9.75;;
2053;SDS011;1032;52.542;13.440;2022-12-07T00:43:53;14.00;;;10.63;;
2053;SDS011;1032;52.542;13.440;2022-12-07T00:46:20;13.48;;;9.52;;
2053;SDS011;1032;52.542;13.440;2022-12-07T00:48:49;13.02;;;9.90;;
2053;SDS011;1032;52.542;13.440;2022-12-07T00:51:17;15.83;;;9.80;;
2053;SDS011;1032;52.542;13.440;2022-12-07T00:53:45;11.95;;;10.00;;
2053;SDS011;1032;52.542;13.440;2022-12-07T00:56:12;11.70;;;9.05;;
2053;SDS011;1032;52.542;13.440;2022-12-07T00:58:40;12.80;;;9.10;;
2053;SDS011;1032;52.542;13.440;2022-12-07T01:01:08;12.10;;;8.88;;
2053;SDS011;1032;52.542;13.440;2022-12-07T01:03:36;11.77;;;9.53;;
2053;SDS011;1032;52.542;13.440;2022-12-07T01:06:05;10.27;;;8.93;;
2053;SDS011;1032;52.542;13.440;2022-12-07T01:08:32;12.27;;;9.02;;
2053;SDS011;1032;52.542;13.440;2022-12-07T01:10:59;12.38;;;9.35;;
2053;SDS011;1032;52.542;13.440;2022-12-07T01:13:27;12.25;;;9.85;;
2053;SDS011;1032;52.542;13.440;2022-12-07T01:15:55;11.63;;;9.38;;
2053;SDS011;1032;52.542;13.440;2022-12-07T01:18:23;13.65;;;9.02;;
2053;SDS011;1032;52.542;13.440;2022-12-07T01:20:56;13.20;;;9.63;;
2053;SDS011;1032;52.542;13.440;2022-12-07T01:23:25;11.02;;;8.50;;
2053;SDS011;1032;52.542;13.440;2022-12-07T01:25:53;11.65;;;9.82;;
2053;SDS011;1032;52.542;13.440;2022-12-07T01:28:21;11.70;;;9.93;;
2053;SDS011;1032;52.542;13.440;2022-12-07T01:30:54;12.07;;;9.50;;
2053;SDS011;1032;52.542;13.440;2022-12-07T01:33:22;12.10;;;9.35;;
2053;SDS011;1032;52.542;13.440;2022-12-07T01:35:48;11.85;;;9.10;;
2053;SDS011;1032;52.542;13.440;2022-12-07T01:38:15;10.75;;;8.98;;
2053;SDS011;1032;52.542;13.440;2022-12-07T01:40:43;11.73;;;9.00;;
2053;SDS011;1032;52.542;13.440;2022-12-07T01:43:13;10.98;;;8.60;;
2053;SDS011;1032;52.542;13.440;2022-12-07T01:45:42;12.98;;;7.90;;
2053;SDS011;1032;52.542;13.440;2022-12-07T01:48:09;9.90;;;8.23;;
2053;SDS011;1032;52.542;13.440;2022-12-07T01:50:39;10.70;;;8.50;;
2053;SDS011;1032;52.542;13.440;2022-12-07T01:53:08;8.53;;;7.57;;
2053;SDS011;1032;52.542;13.440;2022-12-07T01:55:37;12.90;;;9.18;;
2053;SDS011;1032;52.542;13.440;2022-12-07T01:58:09;10.98;;;7.55;;
2053;SDS011;1032;52.542;13.440;2022-12-07T02:00:38;11.27;;;7.47;;
2053;SDS011;1032;52.542;13.440;2022-12-07T02:03:05;9.85;;;7.20;;
2053;SDS011;1032;52.542;13.440;2022-12-07T02:05:35;9.82;;;7.47;;
2053;SDS011;1032;52.542;13.440;2022-12-07T02:08:04;8.73;;;6.72;;
2053;SDS011;1032;52.542;13.440;2022-12-07T02:10:31;7.38;;;6.55;;
2053;SDS011;1032;52.542;13.440;2022-12-07T02:12:59;8.73;;;7.28;;
2053;SDS011;1032;52.542;13.440;2022-12-07T02:15:34;8.73;;;6.40;;
2053;SDS011;1032;52.542;13.440;2022-12-07T02:18:09;7.15;;;6.07;;
2053;SDS011;1032;52.542;13.440;2022-12-07T02:20:42;9.03;;;5.70;;
2053;SDS011;1032;52.542;13.440;2022-12-07T02:23:27;7.70;;;6.40;;
2053;SDS011;1032;52.542;13.440;2022-12-07T02:26:11;9.32;;;6.93;;
2053;SDS011;1032;52.542;13.440;2022-12-07T02:29:11;8.23;;;6.70;;
2053;SDS011;1032;52.542;13.440;2022-12-07T02:31:43;7.53;;;5.72;;
2053;SDS011;1032;52.542;13.440;2022-12-07T02:34:17;6.93;;;6.10;;
2053;SDS011;1032;52.542;13.440;2022-12-07T02:36:51;9.20;;;6.22;;
2053;SDS011;1032;52.542;13.440;2022-12-07T02:39:24;7.05;;;5.78;;
2053;SDS011;1032;52.542;13.440;2022-12-07T02:41:58;7.18;;;6.00;;
2053;SDS011;1032;52.542;13.440;2022-12-07T02:44:30;12.85;;;6.15;;
2053;SDS011;1032;52.542;13.440;2022-12-07T02:46:59;7.05;;;5.93;;
2053;SDS011;1032;52.542;13.440;2022-12-07T02:49:28;9.45;;;6.78;;
2053;SDS011;1032;52.542;13.440;2022-12-07T02:51:56;7.97;;;6.78;;
2053;SDS011;1032;52.542;13.440;2022-12-07T02:54:22;9.32;;;7.65;;
2053;SDS011;1032;52.542;13.440;2022-12-07T02:56:50;8.50;;;7.18;;
2053;SDS011;1032;52.542;13.440;2022-12-07T02:59:25;9.23;;;7.53;;
2053;SDS011;1032;52.542;13.440;2022-12-07T03:02:04;10.20;;;7.68;;
2053;SDS011;1032;52.542;13.440;2022-12-07T03:04:41;8.25;;;6.78;;
2053;SDS011;1032;52.542;13.440;2022-12-07T03:07:18;10.70;;;7.95;;
2053;SDS011;1032;52.542;13.440;2022-12-07T03:09:53;10.23;;;7.30;;
2053;SDS011;1032;52.542;13.440;2022-12-07T03:12:28;9.15;;;7.00;;
2053;SDS011;1032;52.542;13.440;2022-12-07T03:15:03;10.18;;;7.50;;
2053;SDS011;1032;52.542;13.440;2022-12-07T03:17:35;16.58;;;8.50;;
2053;SDS011;1032;52.542;13.440;2022-12-07T03:20:06;10.38;;;7.95;;
2053;SDS011;1032;52.542;13.440;2022-12-07T03:22:37;19.48;;;9.20;;
2053;SDS011;1032;52.542;13.440;2022-12-07T03:25:07;13.38;;;8.68;;
2053;SDS011;1032;52.542;13.440;2022-12-07T03:27:37;15.20;;;8.93;;
2053;SDS011;1032;52.542;13.440;2022-12-07T03:30:12;12.10;;;8.57;;
2053;SDS011;1032;52.542;13.440;2022-12-07T03:32:43;10.43;;;7.97;;
2053;SDS011;1032;52.542;13.440;2022-12-07T03:35:15;12.95;;;8.90;;
2053;SDS011;1032;52.542;13.440;2022-12-07T03:37:45;11.95;;;9.02;;
2053;SDS011;1032;52.542;13.440;2022-12-07T03:40:16;12.10;;;9.13;;
2053;SDS011;1032;52.542;13.440;2022-12-07T03:42:49;11.57;;;9.10;;
2053;SDS011;1032;52.542;13.440;2022-12-07T03:45:18;11.60;;;9.10;;
2053;SDS011;1032;52.542;13.440;2022-12-07T03:47:50;12.50;;;10.10;;
2053;SDS011;1032;52.542;13.440;2022-12-07T03:50:25;14.20;;;10.00;;
2053;SDS011;1032;52.542;13.440;2022-12-07T03:52:58;14.13;;;9.38;;
2053;SDS011;1032;52.542;13.440;2022-12-07T03:55:31;12.02;;;9.75;;
2053;SDS011;1032;52.542;13.440;2022-12-07T03:58:01;12.32;;;9.77;;
2053;SDS011;1032;52.542;13.440;2022-12-07T04:00:32;13.27;;;10.23;;
2053;SDS011;1032;52.542;13.440;2022-12-07T04:02:58;12.57;;;9.55;;
2053;SDS011;1032;52.542;13.440;2022-12-07T04:05:25;12.60;;;8.32;;
2053;SDS011;1032;52.542;13.440;2022-12-07T04:07:52;16.13;;;10.27;;
2053;SDS011;1032;52.542;13.440;2022-12-07T04:10:19;16.88;;;9.93;;
2053;SDS011;1032;52.542;13.440;2022-12-07T04:12:46;15.02;;;10.02;;
2053;SDS011;1032;52.542;13.440;2022-12-07T04:15:12;13.77;;;10.45;;
2053;SDS011;1032;52.542;13.440;2022-12-07T04:17:40;18.73;;;11.25;;
2053;SDS011;1032;52.542;13.440;2022-12-07T04:20:07;16.08;;;10.00;;
2053;SDS011;1032;52.542;13.440;2022-12-07T04:22:35;14.23;;;11.52;;
2053;SDS011;1032;52.542;13.440;2022-12-07T04:25:02;14.85;;;11.02;;
2053;SDS011;1032;52.542;13.440;2022-12-07T04:27:29;15.15;;;11.25;;
2053;SDS011;1032;52.542;13.440;2022-12-07T04:29:55;15.95;;;11.05;;
2053;SDS011;1032;52.542;13.440;2022-12-07T04:32:22;16.63;;;12.32;;
2053;SDS011;1032;52.542;13.440;2022-12-07T04:34:50;15.35;;;10.77;;
2053;SDS011;1032;52.542;13.440;2022-12-07T04:37:17;14.52;;;10.60;;
2053;SDS011;1032;52.542;13.440;2022-12-07T04:39:44;17.52;;;12.98;;
2053;SDS011;1032;52.542;13.440;2022-12-07T04:42:10;17.52;;;12.27;;
2053;SDS011;1032;52.542;13.440;2022-12-07T04:44:37;19.50;;;13.32;;
2053;SDS011;1032;52.542;13.440;2022-12-07T04:47:04;20.27;;;13.17;;
2053;SDS011;1032;52.542;13.440;2022-12-07T04:49:31;16.42;;;12.45;;
2053;SDS011;1032;52.542;13.440;2022-12-07T04:51:59;26.55;;;14.13;;
2053;SDS011;1032;52.542;13.440;2022-12-07T04:54:26;17.25;;;12.57;;
2053;SDS011;1032;52.542;13.440;2022-12-07T04:56:52;20.15;;;12.65;;
2053;SDS011;1032;52.542;13.440;2022-12-07T04:59:19;20.27;;;13.02;;
2053;SDS011;1032;52.542;13.440;2022-12-07T05:01:45;20.35;;;14.23;;
2053;SDS011;1032;52.542;13.440;2022-12-07T05:04:12;20.42;;;13.63;;
2053;SDS011;1032;52.542;13.440;2022-12-07T05:06:40;19.70;;;14.50;;
2053;SDS011;1032;52.542;13.440;2022-12-07T05:09:09;19.45;;;14.35;;
2053;SDS011;1032;52.542;13.440;2022-12-07T05:11:35;20.55;;;15.52;;
2053;SDS011;1032;52.542;13.440;2022-12-07T05:14:06;22.00;;;15.20;;
2053;SDS011;1032;52.542;13.440;2022-12-07T05:16:35;25.50;;;16.67;;
2053;SDS011;1032;52.542;13.440;2022-12-07T05:19:03;22.83;;;15.43;;
2053;SDS011;1032;52.542;13.440;2022-12-07T05:21:30;22.23;;;15.60;;
2053;SDS011;1032;52.542;13.440;2022-12-07T05:23:57;22.10;;;16.98;;
2053;SDS011;1032;52.542;13.440;2022-12-07T05:26:25;29.67;;;16.70;;
2053;SDS011;1032;52.542;13.440;2022-12-07T05:28:52;23.83;;;15.85;;
2053;SDS011;1032;52.542;13.440;2022-12-07T05:31:20;21.25;;;16.17;;
2053;SDS011;1032;52.542;13.440;2022-12-07T05:33:46;27.67;;;17.88;;
2053;SDS011;1032;52.542;13.440;2022-12-07T05:36:13;23.05;;;17.05;;
2053;SDS011;1032;52.542;13.440;2022-12-07T05:38:40;25.95;;;17.20;;
2053;SDS011;1032;52.542;13.440;2022-12-07T05:41:07;27.10;;;16.95;;
2053;SDS011;1032;52.542;13.440;2022-12-07T05:43:56;25.35;;;17.13;;
2053;SDS011;1032;52.542;13.440;2022-12-07T05:46:23;26.65;;;17.98;;
2053;SDS011;1032;52.542;13.440;2022-12-07T05:48:49;29.02;;;18.50;;
2053;SDS011;1032;52.542;13.440;2022-12-07T05:51:16;27.50;;;19.80;;
2053;SDS011;1032;52.542;13.440;2022-12-07T05:53:43;26.00;;;18.13;;
2053;SDS011;1032;52.542;13.440;2022-12-07T05:56:10;32.55;;;19.40;;
2053;SDS011;1032;52.542;13.440;2022-12-07T05:58:36;29.95;;;19.05;;
2053;SDS011;1032;52.542;13.440;2022-12-07T06:01:22;30.38;;;18.50;;
2053;SDS011;1032;52.542;13.440;2022-12-07T06:03:49;31.00;;;20.08;;
2053;SDS011;1032;52.542;13.440;2022-12-07T06:06:16;28.80;;;21.13;;
2053;SDS011;1032;52.542;13.440;2022-12-07T06:08:42;33.92;;;21.60;;
2053;SDS011;1032;52.542;13.440;2022-12-07T06:11:09;29.00;;;19.20;;
2053;SDS011;1032;52.542;13.440;2022-12-07T06:13:53;32.22;;;19.92;;
2053;SDS011;1032;52.542;13.440;2022-12-07T06:16:20;29.83;;;19.67;;
2053;SDS011;1032;52.542;13.440;2022-12-07T06:18:48;27.73;;;19.50;;
2053;SDS011;1032;52.542;13.440;2022-12-07T06:21:14;32.20;;;20.67;;
2053;SDS011;1032;52.542;13.440;2022-12-07T06:23:41;29.13;;;20.08;;
2053;SDS011;1032;52.542;13.440;2022-12-07T06:26:07;31.15;;;18.45;;
2053;SDS011;1032;52.542;13.440;2022-12-07T06:28:34;33.33;;;20.93;;
2053;SDS011;1032;52.542;13.440;2022-12-07T06:31:01;29.38;;;19.95;;
2053;SDS011;1032;52.542;13.440;2022-12-07T06:33:29;33.42;;;20.10;;
2053;SDS011;1032;52.542;13.440;2022-12-07T06:35:57;33.65;;;18.45;;
2053;SDS011;1032;52.542;13.440;2022-12-07T06:38:23;26.27;;;17.50;;
2053;SDS011;1032;52.542;13.440;2022-12-07T06:40:50;25.70;;;18.08;;
2053;SDS011;1032;52.542;13.440;2022-12-07T06:43:17;35.25;;;24.08;;
2053;SDS011;1032;52.542;13.440;2022-12-07T06:45:43;28.63;;;17.38;;
2053;SDS011;1032;52.542;13.440;2022-12-07T06:48:10;29.08;;;18.27;;
2053;SDS011;1032;52.542;13.440;2022-12-07T06:50:37;27.77;;;17.38;;
2053;SDS011;1032;52.542;13.440;2022-12-07T06:53:05;26.63;;;18.17;;
2053;SDS011;1032;52.542;13.440;2022-12-07T06:55:31;26.13;;;17.38;;
2053;SDS011;1032;52.542;13.440;2022-12-07T06:57:58;28.67;;;19.03;;
2053;SDS011;1032;52.542;13.440;2022-12-07T07:00:26;27.15;;;18.83;;
2053;SDS011;1032;52.542;13.440;2022-12-07T07:02:53;27.30;;;18.58;;
2053;SDS011;1032;52.542;13.440;2022-12-07T07:05:19;24.33;;;18.13;;
2053;SDS011;1032;52.542;13.440;2022-12-07T07:07:46;27.30;;;18.15;;
2053;SDS011;1032;52.542;13.440;2022-12-07T07:10:15;25.52;;;18.60;;
2053;SDS011;1032;52.542;13.440;2022-12-07T07:12:41;25.87;;;18.30;;
2053;SDS011;1032;52.542;13.440;2022-12-07T07:15:08;29.60;;;18.92;;
2053;SDS011;1032;52.542;13.440;2022-12-07T07:17:36;25.60;;;18.17;;
2053;SDS011;1032;52.542;13.440;2022-12-07T07:20:03;27.45;;;17.70;;
2053;SDS011;1032;52.542;13.440;2022-12-07T07:22:31;35.00;;;18.00;;
2053;SDS011;1032;52.542;13.440;2022-12-07T07:24:58;25.17;;;17.52;;
2053;SDS011;1032;52.542;13.440;2022-12-07T07:27:26;26.70;;;18.13;;
2053;SDS011;1032;52.542;13.440;2022-12-07T07:29:52;26.20;;;17.40;;
2053;SDS011;1032;52.542;13.440;2022-12-07T07:32:19;28.33;;;18.02;;
2053;SDS011;1032;52.542;13.440;2022-12-07T07:34:46;23.00;;;16.40;;
2053;SDS011;1032;52.542;13.440;2022-12-07T07:37:13;25.42;;;17.20;;
2053;SDS011;1032;52.542;13.440;2022-12-07T07:39:40;28.02;;;17.05;;
2053;SDS011;1032;52.542;13.440;2022-12-07T07:42:06;33.95;;;18.35;;
2053;SDS011;1032;52.542;13.440;2022-12-07T07:44:34;29.70;;;20.20;;
2053;SDS011;1032;52.542;13.440;2022-12-07T07:47:01;24.17;;;15.82;;
2053;SDS011;1032;52.542;13.440;2022-12-07T07:49:28;26.42;;;16.55;;
2053;SDS011;1032;52.542;13.440;2022-12-07T07:51:55;22.65;;;15.60;;
2053;SDS011;1032;52.542;13.440;2022-12-07T07:54:22;21.77;;;16.00;;
2053;SDS011;1032;52.542;13.440;2022-12-07T07:56:48;19.77;;;14.83;;
2053;SDS011;1032;52.542;13.440;2022-12-07T07:59:15;22.10;;;15.40;;
2053;SDS011;1032;52.542;13.440;2022-12-07T08:01:43;23.00;;;15.20;;
2053;SDS011;1032;52.542;13.440;2022-12-07T08:04:10;21.53;;;13.10;;
2053;SDS011;1032;52.542;13.440;2022-12-07T08:06:36;17.35;;;12.43;;
2053;SDS011;1032;52.542;13.440;2022-12-07T08:09:03;22.23;;;13.57;;
2053;SDS011;1032;52.542;13.440;2022-12-07T08:11:30;16.20;;;11.50;;
2053;SDS011;1032;52.542;13.440;2022-12-07T08:13:57;13.55;;;10.80;;
2053;SDS011;1032;52.542;13.440;2022-12-07T08:16:24;16.17;;;11.90;;
2053;SDS011;1032;52.542;13.440;2022-12-07T08:18:52;19.40;;;10.60;;
2053;SDS011;1032;52.542;13.440;2022-12-07T08:21:18;11.77;;;9.23;;
2053;SDS011;1032;52.542;13.440;2022-12-07T08:23:45;13.07;;;8.82;;
2053;SDS011;1032;52.542;13.440;2022-12-07T08:26:12;12.40;;;8.73;;
2053;SDS011;1032;52.542;13.440;2022-12-07T08:28:40;18.80;;;10.73;;
2053;SDS011;1032;52.542;13.440;2022-12-07T08:31:08;13.10;;;9.47;;
2053;SDS011;1032;52.542;13.440;2022-12-07T08:33:37;10.27;;;8.10;;
2053;SDS011;1032;52.542;13.440;2022-12-07T08:36:07;7.75;;;6.90;;
2053;SDS011;1032;52.542;13.440;2022-12-07T08:38:35;13.15;;;7.78;;
2053;SDS011;1032;52.542;13.440;2022-12-07T08:41:02;12.73;;;7.60;;
2053;SDS011;1032;52.542;13.440;2022-12-07T08:43:29;9.07;;;6.43;;
2053;SDS011;1032;52.542;13.440;2022-12-07T08:45:58;8.17;;;6.53;;
2053;SDS011;1032;52.542;13.440;2022-12-07T08:48:35;8.68;;;7.25;;
2053;SDS011;1032;52.542;13.440;2022-12-07T08:51:06;10.10;;;5.53;;
2053;SDS011;1032;52.542;13.440;2022-12-07T08:53:33;7.97;;;6.10;;
2053;SDS011;1032;52.542;13.440;2022-12-07T08:56:00;6.80;;;5.63;;
2053;SDS011;1032;52.542;13.440;2022-12-07T08:58:27;7.80;;;6.10;;
2053;SDS011;1032;52.542;13.440;2022-12-07T09:00:54;6.60;;;4.90;;
2053;SDS011;1032;52.542;13.440;2022-12-07T09:03:20;5.47;;;4.87;;
2053;SDS011;1032;52.542;13.440;2022-12-07T09:05:47;6.65;;;4.75;;
2053;SDS011;1032;52.542;13.440;2022-12-07T09:08:15;6.05;;;4.88;;
2053;SDS011;1032;52.542;13.440;2022-12-07T09:10:42;5.47;;;4.23;;
2053;SDS011;1032;52.542;13.440;2022-12-07T09:13:08;5.05;;;3.83;;
2053;SDS011;1032;52.542;13.440;2022-12-07T09:15:35;6.43;;;4.37;;
2053;SDS011;1032;52.542;13.440;2022-12-07T09:18:01;3.97;;;3.50;;
2053;SDS011;1032;52.542;13.440;2022-12-07T09:20:28;4.50;;;3.90;;
2053;SDS011;1032;52.542;13.440;2022-12-07T09:22:55;4.20;;;3.37;;
2053;SDS011;1032;52.542;13.440;2022-12-07T09:25:23;4.77;;;4.20;;
2053;SDS011;1032;52.542;13.440;2022-12-07T09:27:54;4.75;;;4.00;;
2053;SDS011;1032;52.542;13.440;2022-12-07T09:30:22;4.80;;;3.07;;
2053;SDS011;1032;52.542;13.440;2022-12-07T09:32:48;3.73;;;3.17;;
2053;SDS011;1032;52.542;13.440;2022-12-07T09:35:15;6.72;;;2.85;;
2053;SDS011;1032;52.542;13.440;2022-12-07T09:37:42;3.33;;;2.57;;
2053;SDS011;1032;52.542;13.440;2022-12-07T09:40:08;3.50;;;2.87;;
2053;SDS011;1032;52.542;13.440;2022-12-07T09:42:37;4.70;;;3.30;;
2053;SDS011;1032;52.542;13.440;2022-12-07T09:45:11;7.53;;;4.00;;
2053;SDS011;1032;52.542;13.440;2022-12-07T09:47:41;5.97;;;3.28;;
2053;SDS011;1032;52.542;13.440;2022-12-07T09:50:11;4.70;;;3.17;;
2053;SDS011;1032;52.542;13.440;2022-12-07T09:52:40;5.53;;;3.20;;
2053;SDS011;1032;52.542;13.440;2022-12-07T09:55:09;4.13;;;2.90;;
2053;SDS011;1032;52.542;13.440;2022-12-07T09:57:39;3.75;;;2.80;;
2053;SDS011;1032;52.542;13.440;2022-12-07T10:00:09;4.97;;;3.53;;
2053;SDS011;1032;52.542;13.440;2022-12-07T10:02:39;3.83;;;2.90;;
2053;SDS011;1032;52.542;13.440;2022-12-07T10:05:10;3.60;;;3.22;;
2053;SDS011;1032;52.542;13.440;2022-12-07T10:07:40;4.00;;;3.60;;
2053;SDS011;1032;52.542;13.440;2022-12-07T10:10:09;2.87;;;2.57;;
2053;SDS011;1032;52.542;13.440;2022-12-07T10:12:53;3.83;;;3.00;;
2053;SDS011;1032;52.542;13.440;2022-12-07T10:15:22;7.70;;;5.13;;
2053;SDS011;1032;52.542;13.440;2022-12-07T10:17:49;9.70;;;6.00;;
2053;SDS011;1032;52.542;13.440;2022-12-07T10:20:21;13.80;;;10.70;;
2053;SDS011;1032;52.542;13.440;2022-12-07T10:22:53;15.50;;;5.80;;
2053;SDS011;1032;52.542;13.440;2022-12-07T10:25:21;7.20;;;3.40;;
2053;SDS011;1032;52.542;13.440;2022-12-07T10:27:58;4.78;;;3.08;;
2053;SDS011;1032;52.542;13.440;2022-12-07T10:30:26;3.30;;;2.67;;
2053;SDS011;1032;52.542;13.440;2022-12-07T10:32:53;4.73;;;2.30;;
2053;SDS011;1032;52.542;13.440;2022-12-07T10:35:21;4.13;;;2.92;;
2053;SDS011;1032;52.542;13.440;2022-12-07T10:37:50;3.17;;;2.70;;
2053;SDS011;1032;52.542;13.440;2022-12-07T10:40:26;5.87;;;3.00;;
2053;SDS011;1032;52.542;13.440;2022-12-07T10:43:06;4.20;;;3.00;;
2053;SDS011;1032;52.542;13.440;2022-12-07T10:45:53;2.93;;;2.63;;
2053;SDS011;1032;52.542;13.440;2022-12-07T10:48:40;4.77;;;2.60;;
2053;SDS011;1032;52.542;13.440;2022-12-07T10:51:14;6.20;;;3.30;;
2053;SDS011;1032;52.542;13.440;2022-12-07T10:53:55;7.90;;;3.60;;
2053;SDS011;1032;52.542;13.440;2022-12-07T10:56:36;6.20;;;4.93;;
2053;SDS011;1032;52.542;13.440;2022-12-07T10:59:18;9.77;;;4.87;;
2053;SDS011;1032;52.542;13.440;2022-12-07T11:01:57;5.75;;;4.10;;
2053;SDS011;1032;52.542;13.440;2022-12-07T11:04:33;7.22;;;4.15;;
2053;SDS011;1032;52.542;13.440;2022-12-07T11:07:08;7.90;;;5.20;;
2053;SDS011;1032;52.542;13.440;2022-12-07T11:12:34;4.47;;;4.00;;
2053;SDS011;1032;52.542;13.440;2022-12-07T11:15:13;5.70;;;4.67;;
2053;SDS011;1032;52.542;13.440;2022-12-07T11:17:45;7.50;;;4.07;;
2053;SDS011;1032;52.542;13.440;2022-12-07T11:20:24;11.23;;;5.30;;
2053;SDS011;1032;52.542;13.440;2022-12-07T11:23:02;9.13;;;4.90;;
2053;SDS011;1032;52.542;13.440;2022-12-07T11:25:39;7.93;;;4.63;;
2053;SDS011;1032;52.542;13.440;2022-12-07T11:28:17;6.13;;;4.17;;
2053;SDS011;1032;52.542;13.440;2022-12-07T11:30:57;9.50;;;5.97;;
2053;SDS011;1032;52.542;13.440;2022-12-07T11:33:33;6.15;;;5.03;;
2053;SDS011;1032;52.542;13.440;2022-12-07T11:36:08;8.90;;;4.73;;
2053;SDS011;1032;52.542;13.440;2022-12-07T11:38:52;7.40;;;4.50;;
2053;SDS011;1032;52.542;13.440;2022-12-07T11:41:22;8.00;;;4.57;;
2053;SDS011;1032;52.542;13.440;2022-12-07T11:43:54;8.97;;;4.50;;
2053;SDS011;1032;52.542;13.440;2022-12-07T11:46:26;8.37;;;5.20;;
2053;SDS011;1032;52.542;13.440;2022-12-07T11:49:02;7.27;;;5.40;;
2053;SDS011;1032;52.542;13.440;2022-12-07T11:51:36;5.97;;;4.40;;
2053;SDS011;1032;52.542;13.440;2022-12-07T11:54:09;7.20;;;5.37;;
2053;SDS011;1032;52.542;13.440;2022-12-07T11:56:40;5.67;;;5.07;;
2053;SDS011;1032;52.542;13.440;2022-12-07T11:59:08;6.53;;;4.80;;
2053;SDS011;1032;52.542;13.440;2022-12-07T12:01:42;7.73;;;5.63;;
2053;SDS011;1032;52.542;13.440;2022-12-07T12:04:19;8.47;;;6.07;;
2053;SDS011;1032;52.542;13.440;2022-12-07T12:06:53;7.70;;;5.00;;
2053;SDS011;1032;52.542;13.440;2022-12-07T12:09:21;10.33;;;4.30;;
2053;SDS011;1032;52.542;13.440;2022-12-07T12:11:56;8.53;;;5.10;;
2053;SDS011;1032;52.542;13.440;2022-12-07T12:14:37;9.70;;;4.53;;
2053;SDS011;1032;52.542;13.440;2022-12-07T12:20:18;8.33;;;5.10;;
2053;SDS011;1032;52.542;13.440;2022-12-07T12:22:48;13.83;;;5.73;;
2053;SDS011;1032;52.542;13.440;2022-12-07T12:25:20;9.53;;;6.17;;
2053;SDS011;1032;52.542;13.440;2022-12-07T12:27:49;8.03;;;4.87;;
2053;SDS011;1032;52.542;13.440;2022-12-07T12:30:32;11.13;;;5.50;;
2053;SDS011;1032;52.542;13.440;2022-12-07T12:33:03;9.60;;;6.03;;
2053;SDS011;1032;52.542;13.440;2022-12-07T12:35:33;6.67;;;4.30;;
2053;SDS011;1032;52.542;13.440;2022-12-07T12:40:59;10.73;;;4.80;;
2053;SDS011;1032;52.542;13.440;2022-12-07T12:58:38;12.63;;;4.17;;
2053;SDS011;1032;52.542;13.440;2022-12-07T13:04:24;6.50;;;4.17;;
2053;SDS011;1032;52.542;13.440;2022-12-07T13:07:03;13.60;;;4.90;;
2053;SDS011;1032;52.542;13.440;2022-12-07T13:09:31;10.33;;;3.60;;
2053;SDS011;1032;52.542;13.440;2022-12-07T13:12:02;6.70;;;3.37;;
2053;SDS011;1032;52.542;13.440;2022-12-07T13:14:39;7.83;;;4.30;;
2053;SDS011;1032;52.542;13.440;2022-12-07T13:23:14;15.23;;;5.57;;
2053;SDS011;1032;52.542;13.440;2022-12-07T13:25:48;8.37;;;4.50;;
2053;SDS011;1032;52.542;13.440;2022-12-07T13:28:32;8.60;;;3.83;;
2053;SDS011;1032;52.542;13.440;2022-12-07T13:33:56;10.17;;;4.10;;
2053;SDS011;1032;52.542;13.440;2022-12-07T13:36:24;11.63;;;4.70;;
2053;SDS011;1032;52.542;13.440;2022-12-07T13:38:55;17.13;;;4.83;;
2053;SDS011;1032;52.542;13.440;2022-12-07T13:41:24;8.50;;;4.23;;
2053;SDS011;1032;52.542;13.440;2022-12-07T13:43:59;17.70;;;4.53;;
2053;SDS011;1032;52.542;13.440;2022-12-07T13:46:31;7.27;;;3.50;;
2053;SDS011;1032;52.542;13.440;2022-12-07T13:49:15;8.27;;;3.77;;
2053;SDS011;1032;52.542;13.440;2022-12-07T13:51:44;7.30;;;3.50;;
2053;SDS011;1032;52.542;13.440;2022-12-07T13:54:12;8.03;;;3.60;;
2053;SDS011;1032;52.542;13.440;2022-12-07T13:56:40;10.30;;;4.10;;
2053;SDS011;1032;52.542;13.440;2022-12-07T13:59:10;12.53;;;4.20;;
2053;SDS011;1032;52.542;13.440;2022-12-07T14:01:41;7.67;;;3.77;;
2053;SDS011;1032;52.542;13.440;2022-12-07T14:04:18;10.70;;;4.27;;
2053;SDS011;1032;52.542;13.440;2022-12-07T14:06:53;9.13;;;3.77;;
2053;SDS011;1032;52.542;13.440;2022-12-07T14:09:22;10.70;;;3.13;;
2053;SDS011;1032;52.542;13.440;2022-12-07T14:11:50;11.47;;;3.30;;
2053;SDS011;1032;52.542;13.440;2022-12-07T14:14:20;6.43;;;2.47;;
2053;SDS011;1032;52.542;13.440;2022-12-07T14:17:01;9.67;;;4.40;;
2053;SDS011;1032;52.542;13.440;2022-12-07T14:19:39;7.10;;;3.10;;
2053;SDS011;1032;52.542;13.440;2022-12-07T14:22:08;11.00;;;5.27;;
2053;SDS011;1032;52.542;13.440;2022-12-07T14:24:45;10.73;;;3.63;;
2053;SDS011;1032;52.542;13.440;2022-12-07T14:27:18;8.60;;;3.30;;
2053;SDS011;1032;52.542;13.440;2022-12-07T14:29:46;11.50;;;4.27;;
2053;SDS011;1032;52.542;13.440;2022-12-07T14:32:17;10.37;;;3.40;;
2053;SDS011;1032;52.542;13.440;2022-12-07T14:34:58;4.80;;;3.50;;
2053;SDS011;1032;52.542;13.440;2022-12-07T14:37:26;6.10;;;3.67;;
2053;SDS011;1032;52.542;13.440;2022-12-07T14:39:55;10.57;;;4.43;;
2053;SDS011;1032;52.542;13.440;2022-12-07T14:42:23;17.03;;;7.40;;
2053;SDS011;1032;52.542;13.440;2022-12-07T14:44:53;10.87;;;6.07;;
2053;SDS011;1032;52.542;13.440;2022-12-07T14:47:20;28.33;;;24.47;;
2053;SDS011;1032;52.542;13.440;2022-12-07T14:49:46;9.07;;;3.90;;
2053;SDS011;1032;52.542;13.440;2022-12-07T14:52:14;7.67;;;3.90;;
2053;SDS011;1032;52.542;13.440;2022-12-07T14:54:43;9.37;;;4.00;;
2053;SDS011;1032;52.542;13.440;2022-12-07T14:57:11;12.50;;;3.67;;
2053;SDS011;1032;52.542;13.440;2022-12-07T14:59:38;8.30;;;5.13;;
2053;SDS011;1032;52.542;13.440;2022-12-07T15:02:05;9.90;;;4.23;;
2053;SDS011;1032;52.542;13.440;2022-12-07T15:04:33;10.83;;;4.87;;
2053;SDS011;1032;52.542;13.440;2022-12-07T15:07:00;7.60;;;3.40;;
2053;SDS011;1032;52.542;13.440;2022-12-07T15:09:29;6.47;;;3.83;;
2053;SDS011;1032;52.542;13.440;2022-12-07T15:11:56;9.97;;;3.60;;
2053;SDS011;1032;52.542;13.440;2022-12-07T15:14:24;10.63;;;3.67;;
2053;SDS011;1032;52.542;13.440;2022-12-07T15:16:51;12.37;;;3.43;;
2053;SDS011;1032;52.542;13.440;2022-12-07T15:19:18;11.57;;;3.90;;
2053;SDS011;1032;52.542;13.440;2022-12-07T15:21:47;18.50;;;4.07;;
2053;SDS011;1032;52.542;13.440;2022-12-07T15:24:14;11.20;;;3.23;;
2053;SDS011;1032;52.542;13.440;2022-12-07T15:26:41;12.07;;;3.40;;
2053;SDS011;1032;52.542;13.440;2022-12-07T15:29:08;6.47;;;2.67;;
2053;SDS011;1032;52.542;13.440;2022-12-07T15:31:37;13.07;;;4.90;;
2053;SDS011;1032;52.542;13.440;2022-12-07T15:34:04;9.30;;;4.47;;
2053;SDS011;1032;52.542;13.440;2022-12-07T15:36:31;8.90;;;4.40;;
2053;SDS011;1032;52.542;13.440;2022-12-07T15:38:59;8.17;;;3.70;;
2053;SDS011;1032;52.542;13.440;2022-12-07T15:41:26;11.48;;;3.90;;